createdAt,value
2023-01-26T00:01:14.094Z,24.77
2023-01-26T00:03:46.796Z,24.08
2023-01-26T00:06:19.989Z,24.50
2023-01-26T00:08:57.068Z,22.95
2023-01-26T00:11:30.405Z,29.90
2023-01-26T00:14:03.359Z,22.05
2023-01-26T00:16:35.615Z,23.35
2023-01-26T00:19:07.885Z,22.90
2023-01-26T00:21:40.186Z,24.27
2023-01-26T00:24:15.080Z,18.60
2023-01-26T00:26:47.370Z,23.60
2023-01-26T00:29:19.606Z,24.27
2023-01-26T00:31:51.850Z,23.83
2023-01-26T00:34:24.130Z,22.65
2023-01-26T00:36:56.371Z,27.05
2023-01-26T00:39:31.331Z,28.65
2023-01-26T00:42:06.724Z,26.10
2023-01-26T00:44:39.123Z,22.08
2023-01-26T00:47:12.301Z,20.45
2023-01-26T00:49:44.615Z,24.05
2023-01-26T00:52:16.869Z,23.40
2023-01-26T00:54:51.727Z,19.65
2023-01-26T00:57:24.009Z,20.42
2023-01-26T00:59:56.317Z,24.98
2023-01-26T01:02:28.656Z,23.55
2023-01-26T01:05:00.943Z,21.63
2023-01-26T01:07:33.205Z,25.60
2023-01-26T01:10:08.925Z,23.15
2023-01-26T01:12:41.331Z,30.40
2023-01-26T01:15:13.641Z,21.42
2023-01-26T01:17:45.946Z,23.83
2023-01-26T01:20:18.319Z,23.52
2023-01-26T01:22:51.646Z,21.08
2023-01-26T01:25:26.476Z,21.35
2023-01-26T01:27:58.761Z,21.60
2023-01-26T01:30:31.044Z,19.58
2023-01-26T01:33:03.331Z,23.08
2023-01-26T01:35:35.879Z,20.98
2023-01-26T01:38:08.140Z,20.98
2023-01-26T01:40:45.914Z,18.70
2023-01-26T01:43:18.133Z,17.40
2023-01-26T01:45:50.780Z,19.42
2023-01-26T01:48:24.881Z,22.75
2023-01-26T01:50:58.348Z,17.55
2023-01-26T01:53:32.316Z,16.55
2023-01-26T01:56:10.954Z,15.15
2023-01-26T01:58:44.047Z,13.05
2023-01-26T02:01:16.349Z,15.52
2023-01-26T02:03:50.916Z,12.90
2023-01-26T02:06:24.304Z,12.50
2023-01-26T02:08:57.154Z,16.70
2023-01-26T02:11:34.302Z,18.38
2023-01-26T02:14:09.175Z,15.63
2023-01-26T02:16:41.440Z,16.73
2023-01-26T02:19:17.627Z,18.13
2023-01-26T02:21:51.040Z,16.77
2023-01-26T02:24:26.107Z,14.70
2023-01-26T02:27:00.980Z,16.20
2023-01-26T02:29:33.258Z,15.70
2023-01-26T02:32:05.768Z,17.60
2023-01-26T02:34:38.078Z,19.10
2023-01-26T02:37:14.213Z,17.15
2023-01-26T02:39:50.424Z,19.75
2023-01-26T02:42:42.079Z,16.00
2023-01-26T02:45:16.137Z,17.23
2023-01-26T02:47:48.688Z,17.55
2023-01-26T02:50:20.995Z,18.75
2023-01-26T02:52:53.259Z,18.05
2023-01-26T02:55:26.388Z,15.05
2023-01-26T02:58:02.104Z,14.82
2023-01-26T03:00:37.329Z,16.23
2023-01-26T03:03:14.603Z,11.77
2023-01-26T03:05:47.104Z,16.90
2023-01-26T03:08:19.415Z,15.57
2023-01-26T03:10:51.727Z,16.98
2023-01-26T03:13:26.576Z,18.52
2023-01-26T03:16:06.886Z,16.98
2023-01-26T03:18:58.287Z,16.80
2023-01-26T03:21:49.120Z,16.08
2023-01-26T03:27:27.308Z,17.98
2023-01-26T03:30:02.192Z,20.75
2023-01-26T03:32:34.431Z,19.73
2023-01-26T03:35:07.574Z,15.68
2023-01-26T03:37:41.072Z,18.80
2023-01-26T03:40:32.777Z,18.27
2023-01-26T03:43:26.392Z,17.38
2023-01-26T03:46:21.921Z,18.35
2023-01-26T03:49:13.107Z,20.92
2023-01-26T03:52:03.962Z,15.32
2023-01-26T03:54:55.153Z,20.63
2023-01-26T03:57:29.606Z,20.10
2023-01-26T04:00:01.885Z,22.38
2023-01-26T04:02:55.537Z,21.30
2023-01-26T04:05:46.556Z,18.77
2023-01-26T04:08:24.733Z,19.23
2023-01-26T04:13:47.690Z,17.83
2023-01-26T04:19:32.353Z,20.95
2023-01-26T04:22:04.673Z,21.48
2023-01-26T04:24:36.988Z,19.85
2023-01-26T04:27:09.301Z,20.30
2023-01-26T04:29:41.621Z,18.30
2023-01-26T04:32:13.976Z,20.83
2023-01-26T04:34:48.863Z,18.27
2023-01-26T04:37:21.162Z,16.25
2023-01-26T04:39:53.518Z,18.00
2023-01-26T04:42:26.003Z,20.08
2023-01-26T04:44:58.318Z,19.38
2023-01-26T04:47:30.673Z,17.85
2023-01-26T04:50:05.960Z,22.55
2023-01-26T04:52:38.234Z,21.27
2023-01-26T04:55:10.724Z,18.85
2023-01-26T04:57:42.974Z,19.85
2023-01-26T05:00:15.459Z,18.05
2023-01-26T05:02:47.732Z,19.73
2023-01-26T05:05:22.603Z,16.95
2023-01-26T05:07:55.095Z,17.85
2023-01-26T05:10:27.413Z,18.67
2023-01-26T05:12:59.869Z,17.77
2023-01-26T05:15:32.139Z,19.35
2023-01-26T05:18:04.960Z,18.30
2023-01-26T05:20:39.882Z,17.85
2023-01-26T05:23:12.101Z,19.15
2023-01-26T05:25:44.400Z,17.73
2023-01-26T05:28:16.663Z,21.20
2023-01-26T05:30:49.005Z,20.00
2023-01-26T05:33:22.215Z,17.88
2023-01-26T05:35:57.386Z,21.08
2023-01-26T05:38:29.652Z,18.08
2023-01-26T05:41:01.990Z,18.35
2023-01-26T05:43:34.304Z,14.93
2023-01-26T05:46:06.683Z,19.50
2023-01-26T05:48:38.999Z,23.05
2023-01-26T05:51:13.922Z,19.33
2023-01-26T05:53:46.194Z,20.45
2023-01-26T05:56:18.445Z,21.30
2023-01-26T05:58:50.695Z,20.48
2023-01-26T06:01:22.929Z,22.13
2023-01-26T06:03:55.225Z,21.58
2023-01-26T06:06:30.142Z,19.63
2023-01-26T06:09:02.372Z,21.65
2023-01-26T06:11:34.885Z,24.25
2023-01-26T06:14:07.217Z,24.92
2023-01-26T06:16:39.856Z,19.60
2023-01-26T06:19:12.467Z,24.42
2023-01-26T06:21:47.455Z,21.55
2023-01-26T06:24:20.262Z,22.90
2023-01-26T06:26:52.603Z,25.30
2023-01-26T06:29:24.843Z,21.95
2023-01-26T06:31:57.113Z,19.77
2023-01-26T06:34:29.386Z,23.65
2023-01-26T06:37:04.267Z,19.48
2023-01-26T06:39:36.615Z,19.65
2023-01-26T06:42:09.539Z,23.33
2023-01-26T06:44:41.790Z,19.83
2023-01-26T06:47:14.959Z,21.50
2023-01-26T06:49:47.240Z,22.35
2023-01-26T06:52:27.605Z,23.40
2023-01-26T06:55:00.596Z,22.50
2023-01-26T06:57:32.852Z,23.02
2023-01-26T07:00:06.060Z,22.95
2023-01-26T07:02:38.421Z,22.08
2023-01-26T07:05:12.761Z,21.73
2023-01-26T07:07:47.666Z,21.10
2023-01-26T07:10:20.061Z,21.92
2023-01-26T07:12:52.351Z,19.98
2023-01-26T07:15:24.658Z,19.15
2023-01-26T07:17:57.512Z,18.98
2023-01-26T07:20:29.850Z,22.67
2023-01-26T07:23:04.693Z,19.63
2023-01-26T07:25:36.998Z,19.42
2023-01-26T07:28:10.767Z,21.67
2023-01-26T07:30:43.052Z,19.90
2023-01-26T07:33:15.301Z,23.17
2023-01-26T07:35:47.909Z,20.42
2023-01-26T07:38:23.062Z,20.02
2023-01-26T07:40:55.963Z,16.52
2023-01-26T07:43:28.229Z,17.27
2023-01-26T07:46:00.516Z,18.83
2023-01-26T07:48:34.358Z,15.52
2023-01-26T07:51:09.232Z,18.42
2023-01-26T07:53:45.279Z,21.80
2023-01-26T07:56:20.584Z,19.80
2023-01-26T07:58:53.523Z,16.90
2023-01-26T08:01:25.904Z,20.60
2023-01-26T08:03:58.228Z,22.92
2023-01-26T08:06:30.459Z,21.45
2023-01-26T08:09:05.298Z,17.05
2023-01-26T08:11:37.561Z,20.15
2023-01-26T08:14:09.872Z,21.38
2023-01-26T08:16:42.199Z,20.67
2023-01-26T08:19:14.573Z,21.35
2023-01-26T08:21:46.849Z,19.23
2023-01-26T08:24:21.771Z,16.17
2023-01-26T08:26:54.401Z,18.23
2023-01-26T08:29:26.721Z,15.88
2023-01-26T08:31:59.062Z,17.25
2023-01-26T08:34:31.401Z,19.27
2023-01-26T08:37:04.243Z,16.95
2023-01-26T08:39:39.084Z,19.17
2023-01-26T08:42:11.360Z,18.50
2023-01-26T08:44:43.620Z,20.73
2023-01-26T08:47:15.872Z,22.05
2023-01-26T08:49:48.123Z,17.23
2023-01-26T08:52:21.769Z,17.88
2023-01-26T08:54:56.697Z,18.85
2023-01-26T08:57:28.985Z,23.75
2023-01-26T09:00:01.331Z,16.40
2023-01-26T09:02:33.811Z,20.90
2023-01-26T09:05:06.758Z,19.70
2023-01-26T09:07:39.083Z,18.80
2023-01-26T09:10:14.605Z,17.30
2023-01-26T09:12:47.081Z,14.23
2023-01-26T09:15:19.345Z,15.25
2023-01-26T09:17:51.926Z,17.92
2023-01-26T09:20:24.437Z,15.32
2023-01-26T09:22:57.348Z,14.45
2023-01-26T09:25:32.265Z,17.92
2023-01-26T09:28:05.688Z,14.88
2023-01-26T09:30:38.056Z,15.10
2023-01-26T09:33:10.461Z,15.75
2023-01-26T09:35:42.772Z,14.75
2023-01-26T09:38:15.252Z,17.70
2023-01-26T09:40:57.605Z,14.80
2023-01-26T09:43:34.221Z,14.68
2023-01-26T09:46:11.563Z,15.27
2023-01-26T09:48:50.408Z,15.73
2023-01-26T09:51:24.688Z,13.40
2023-01-26T09:54:00.088Z,12.43
2023-01-26T09:56:35.330Z,15.57
2023-01-26T09:59:12.275Z,13.90
2023-01-26T10:01:45.991Z,12.25
2023-01-26T10:04:23.415Z,13.00
2023-01-26T10:06:57.532Z,13.32
2023-01-26T10:09:33.271Z,15.88
2023-01-26T10:12:09.168Z,13.82
2023-01-26T10:14:44.193Z,16.00
2023-01-26T10:17:18.668Z,12.98
2023-01-26T10:19:53.002Z,12.70
2023-01-26T10:22:28.195Z,14.85
2023-01-26T10:25:00.960Z,16.40
2023-01-26T10:27:36.631Z,11.85
2023-01-26T10:30:13.018Z,13.38
2023-01-26T10:32:48.172Z,12.70
2023-01-26T10:35:22.037Z,14.55
2023-01-26T10:37:54.371Z,9.23
2023-01-26T10:40:26.742Z,12.55
2023-01-26T10:43:01.604Z,14.77
2023-01-26T10:45:34.396Z,13.95
2023-01-26T10:48:14.941Z,13.43
2023-01-26T10:50:48.176Z,9.65
2023-01-26T10:53:25.189Z,10.27
2023-01-26T10:56:01.852Z,11.65
2023-01-26T10:58:48.154Z,12.07
2023-01-26T11:01:23.286Z,10.68
2023-01-26T11:04:04.957Z,10.90
2023-01-26T11:06:37.201Z,9.75
2023-01-26T11:09:10.452Z,8.40
2023-01-26T11:11:42.884Z,9.50
2023-01-26T11:14:19.623Z,12.32
2023-01-26T11:16:54.797Z,7.95
2023-01-26T11:19:35.213Z,8.80
2023-01-26T11:22:09.309Z,7.63
2023-01-26T11:24:46.262Z,9.05
2023-01-26T11:27:34.688Z,11.55
2023-01-26T11:30:25.319Z,10.27
2023-01-26T11:33:00.486Z,13.43
2023-01-26T11:35:37.820Z,11.75
2023-01-26T11:38:15.806Z,7.90
2023-01-26T11:40:49.070Z,13.05
2023-01-26T11:43:32.746Z,11.05
2023-01-26T11:46:13.216Z,9.30
2023-01-26T11:48:49.914Z,9.52
2023-01-26T11:51:27.992Z,13.80
2023-01-26T11:54:09.233Z,9.57
2023-01-26T11:56:45.066Z,9.95
2023-01-26T11:59:18.464Z,9.70
2023-01-26T12:01:57.428Z,10.95
2023-01-26T12:04:32.442Z,10.80
2023-01-26T12:07:07.290Z,12.23
2023-01-26T12:09:43.558Z,10.65
2023-01-26T12:12:17.887Z,8.20
2023-01-26T12:14:51.820Z,11.38
2023-01-26T12:17:37.202Z,10.75
2023-01-26T12:20:21.349Z,13.88
2023-01-26T12:22:55.626Z,12.88
2023-01-26T12:25:31.128Z,12.07
2023-01-26T12:28:12.478Z,13.80
2023-01-26T12:30:49.393Z,10.80
2023-01-26T12:33:24.761Z,11.88
2023-01-26T12:36:11.967Z,11.73
2023-01-26T12:38:51.673Z,12.43
2023-01-26T12:41:28.636Z,11.50
2023-01-26T12:44:06.926Z,10.52
2023-01-26T12:46:40.914Z,10.77
2023-01-26T12:49:18.115Z,12.52
2023-01-26T12:51:51.937Z,11.68
2023-01-26T12:54:30.627Z,10.73
2023-01-26T12:57:05.260Z,11.23
2023-01-26T12:59:48.064Z,9.50
2023-01-26T13:02:24.091Z,10.45
2023-01-26T13:05:00.790Z,13.32
2023-01-26T13:07:34.521Z,25.02
2023-01-26T13:10:11.897Z,10.88
2023-01-26T13:12:45.180Z,12.63
2023-01-26T13:15:18.209Z,11.45
2023-01-26T13:17:52.524Z,13.00
2023-01-26T13:20:29.011Z,10.25
2023-01-26T13:23:01.370Z,11.18
2023-01-26T13:25:33.743Z,10.82
2023-01-26T13:28:13.174Z,9.02
2023-01-26T13:30:46.411Z,9.02
2023-01-26T13:33:22.125Z,12.00
2023-01-26T13:35:57.975Z,10.52
2023-01-26T13:38:34.093Z,12.20
2023-01-26T13:41:08.062Z,8.30
2023-01-26T13:43:42.988Z,11.38
2023-01-26T13:46:19.557Z,10.63
2023-01-26T13:48:52.502Z,12.05
2023-01-26T13:51:28.606Z,12.70
2023-01-26T13:54:04.459Z,10.48
2023-01-26T13:56:39.056Z,11.20
2023-01-26T13:59:12.867Z,11.38
2023-01-26T14:01:46.005Z,12.48
2023-01-26T14:04:21.806Z,10.32
2023-01-26T14:06:59.103Z,11.63
2023-01-26T14:09:32.287Z,10.85
2023-01-26T14:12:06.047Z,10.38
2023-01-26T14:14:38.421Z,10.85
2023-01-26T14:17:25.152Z,10.10
2023-01-26T14:19:58.300Z,11.45
2023-01-26T14:22:33.185Z,11.77
2023-01-26T14:25:10.746Z,10.65
2023-01-26T14:27:43.356Z,11.63
2023-01-26T14:30:23.059Z,10.35
2023-01-26T14:32:57.279Z,9.75
2023-01-26T14:35:29.679Z,10.00
2023-01-26T14:38:20.218Z,10.63
2023-01-26T14:40:53.184Z,9.13
2023-01-26T14:43:27.197Z,9.50
2023-01-26T14:46:01.277Z,9.15
2023-01-26T14:48:35.690Z,10.00
2023-01-26T14:51:12.954Z,11.00
2023-01-26T14:53:51.739Z,9.93
2023-01-26T14:56:28.009Z,9.65
2023-01-26T14:59:00.633Z,8.88
2023-01-26T15:01:33.090Z,13.32
2023-01-26T15:04:09.267Z,11.60
2023-01-26T15:06:41.574Z,14.57
2023-01-26T15:09:21.116Z,12.52
2023-01-26T15:12:12.772Z,12.82
2023-01-26T15:14:49.140Z,12.38
2023-01-26T15:17:28.241Z,12.43
2023-01-26T15:20:00.539Z,12.15
2023-01-26T15:22:32.884Z,12.32
2023-01-26T15:25:18.593Z,10.20
2023-01-26T15:27:52.365Z,15.07
2023-01-26T15:30:26.784Z,11.90
2023-01-26T15:32:59.168Z,12.35
2023-01-26T15:35:32.230Z,16.92
2023-01-26T15:38:05.228Z,12.88
2023-01-26T15:40:40.450Z,11.70
2023-01-26T15:43:13.390Z,15.23
2023-01-26T15:45:50.844Z,14.35
2023-01-26T15:48:31.716Z,14.20
2023-01-26T15:51:04.012Z,12.25
2023-01-26T15:53:36.300Z,13.55
2023-01-26T15:56:14.069Z,13.35
2023-01-26T15:58:46.340Z,14.75
2023-01-26T16:01:22.015Z,14.35
2023-01-26T16:03:54.363Z,16.45
2023-01-26T16:06:27.265Z,14.23
2023-01-26T16:08:59.809Z,14.80
2023-01-26T16:11:35.887Z,15.10
2023-01-26T16:14:10.046Z,15.57
2023-01-26T16:16:42.439Z,16.52
2023-01-26T16:19:26.297Z,14.70
2023-01-26T16:22:06.903Z,11.27
2023-01-26T16:24:39.213Z,16.75
2023-01-26T16:27:14.065Z,15.73
2023-01-26T16:29:46.348Z,12.63
2023-01-26T16:32:25.356Z,15.55
2023-01-26T16:34:57.724Z,15.65
2023-01-26T16:37:30.003Z,12.95
2023-01-26T16:40:02.274Z,16.80
2023-01-26T16:42:40.140Z,13.45
2023-01-26T16:45:15.931Z,13.15
2023-01-26T16:47:49.724Z,12.02
2023-01-26T16:50:22.359Z,13.23
2023-01-26T16:52:54.658Z,15.07
2023-01-26T16:55:26.927Z,17.48
2023-01-26T16:58:01.763Z,16.27
2023-01-26T17:00:34.267Z,13.77
2023-01-26T17:03:08.636Z,16.65
2023-01-26T17:05:41.350Z,13.38
2023-01-26T17:08:13.709Z,15.65
2023-01-26T17:11:01.150Z,16.38
2023-01-26T17:13:36.911Z,15.35
2023-01-26T17:16:13.412Z,14.40
2023-01-26T17:18:45.982Z,13.52
2023-01-26T17:21:19.236Z,16.52
2023-01-26T17:23:52.588Z,18.52
2023-01-26T17:26:25.232Z,16.48
2023-01-26T17:29:00.309Z,14.70
2023-01-26T17:31:32.755Z,14.63
2023-01-26T17:34:05.116Z,13.10
2023-01-26T17:36:37.473Z,14.95
2023-01-26T17:39:10.138Z,15.35
2023-01-26T17:41:42.785Z,12.50
2023-01-26T17:44:17.814Z,13.38
2023-01-26T17:46:50.099Z,14.57
2023-01-26T17:49:22.377Z,16.15
2023-01-26T17:51:54.686Z,13.98
2023-01-26T17:54:26.936Z,14.38
2023-01-26T17:56:59.218Z,14.23
2023-01-26T17:59:34.058Z,13.68
2023-01-26T18:02:06.505Z,11.90
2023-01-26T18:04:38.871Z,10.35
2023-01-26T18:07:11.140Z,9.93
2023-01-26T18:09:43.423Z,12.63
2023-01-26T18:12:15.679Z,9.65
2023-01-26T18:14:50.519Z,10.05
2023-01-26T18:17:22.800Z,10.38
2023-01-26T18:19:55.084Z,9.23
2023-01-26T18:22:27.331Z,8.35
2023-01-26T18:24:59.586Z,8.77
2023-01-26T18:27:31.885Z,13.23
2023-01-26T18:30:07.477Z,10.57
2023-01-26T18:32:39.817Z,12.20
2023-01-26T18:35:12.359Z,16.90
2023-01-26T18:37:44.825Z,8.48
2023-01-26T18:40:17.992Z,8.57
2023-01-26T18:42:50.664Z,7.70
2023-01-26T18:45:25.492Z,9.80
2023-01-26T18:47:57.741Z,9.32
2023-01-26T18:50:29.984Z,7.95
2023-01-26T18:53:03.539Z,9.20
2023-01-26T18:55:35.857Z,8.30
2023-01-26T18:58:08.121Z,8.07
2023-01-26T19:00:42.970Z,11.35
2023-01-26T19:03:15.310Z,9.18
2023-01-26T19:05:47.563Z,11.13
2023-01-26T19:08:22.887Z,9.40
2023-01-26T19:10:55.128Z,11.57
2023-01-26T19:13:27.389Z,10.00
2023-01-26T19:16:02.494Z,10.20
2023-01-26T19:18:34.762Z,9.73
2023-01-26T19:21:07.021Z,9.15
2023-01-26T19:23:40.090Z,10.23
2023-01-26T19:26:13.239Z,9.98
2023-01-26T19:28:45.556Z,12.32
2023-01-26T19:31:20.840Z,10.93
2023-01-26T19:33:53.665Z,10.18
2023-01-26T19:36:26.492Z,9.15
2023-01-26T19:38:59.030Z,10.40
2023-01-26T19:41:31.403Z,11.88
2023-01-26T19:44:03.721Z,10.85
2023-01-26T19:46:38.649Z,10.80
2023-01-26T19:49:13.098Z,9.68
2023-01-26T19:51:45.635Z,10.75
2023-01-26T19:54:17.931Z,12.02
2023-01-26T19:56:51.456Z,11.48
2023-01-26T19:59:23.829Z,12.00
2023-01-26T20:01:58.879Z,11.77
2023-01-26T20:04:31.255Z,12.70
2023-01-26T20:07:05.333Z,13.68
2023-01-26T20:09:37.775Z,11.80
2023-01-26T20:12:11.219Z,13.60
2023-01-26T20:14:43.541Z,13.82
2023-01-26T20:17:18.922Z,13.90
2023-01-26T20:19:51.316Z,13.52
2023-01-26T20:22:24.273Z,14.05
2023-01-26T20:24:56.585Z,16.48
2023-01-26T20:27:30.314Z,13.45
2023-01-26T20:30:02.702Z,11.80
2023-01-26T20:32:37.975Z,13.48
2023-01-26T20:35:12.266Z,14.45
2023-01-26T20:37:44.873Z,14.00
2023-01-26T20:40:17.238Z,13.40
2023-01-26T20:42:49.621Z,14.82
2023-01-26T20:45:22.813Z,13.73
2023-01-26T20:47:58.235Z,12.85
2023-01-26T20:50:36.132Z,15.00
2023-01-26T20:53:08.731Z,14.05
2023-01-26T20:55:41.029Z,15.63
2023-01-26T20:58:13.320Z,17.08
2023-01-26T21:00:45.782Z,15.07
2023-01-26T21:03:22.773Z,14.32
2023-01-26T21:05:55.133Z,14.38
2023-01-26T21:08:27.741Z,14.88
2023-01-26T21:11:02.429Z,14.55
2023-01-26T21:13:34.801Z,16.90
2023-01-26T21:16:07.488Z,14.23
2023-01-26T21:18:42.489Z,19.45
2023-01-26T21:21:19.031Z,14.63
2023-01-26T21:23:51.825Z,14.05
2023-01-26T21:26:25.839Z,16.77
2023-01-26T21:28:59.703Z,14.70
2023-01-26T21:31:32.806Z,15.95
2023-01-26T21:34:07.721Z,15.30
2023-01-26T21:36:40.089Z,15.63
2023-01-26T21:39:14.977Z,14.85
2023-01-26T21:41:56.225Z,12.75
2023-01-26T21:44:29.440Z,14.90
2023-01-26T21:47:03.737Z,15.82
2023-01-26T21:49:38.673Z,15.05
2023-01-26T21:52:30.272Z,14.82
2023-01-26T21:55:02.731Z,16.17
2023-01-26T21:57:53.898Z,14.02
2023-01-26T22:00:26.318Z,13.73
2023-01-26T22:03:00.666Z,14.48
2023-01-26T22:05:35.945Z,12.50
2023-01-26T22:08:08.773Z,11.95
2023-01-26T22:10:41.153Z,13.13
2023-01-26T22:13:13.483Z,11.10
2023-01-26T22:15:45.795Z,9.90
2023-01-26T22:18:18.513Z,12.20
2023-01-26T22:20:54.325Z,9.10
2023-01-26T22:23:26.657Z,7.63
2023-01-26T22:25:59.061Z,6.90
2023-01-26T22:28:31.423Z,7.97
2023-01-26T22:31:06.497Z,6.95
2023-01-26T22:33:38.855Z,6.18
2023-01-26T22:36:13.861Z,7.63
2023-01-26T22:38:46.885Z,5.88
2023-01-26T22:41:20.423Z,6.57
2023-01-26T22:43:54.351Z,6.53
2023-01-26T22:46:27.283Z,7.70
2023-01-26T22:49:00.028Z,8.35
2023-01-26T22:51:37.573Z,8.35
2023-01-26T22:54:10.433Z,6.13
2023-01-26T22:56:42.769Z,6.68
2023-01-26T22:59:15.101Z,7.40
2023-01-26T23:01:47.593Z,6.18
2023-01-26T23:04:19.961Z,7.25
2023-01-26T23:06:54.871Z,8.52
2023-01-26T23:09:27.207Z,7.22
2023-01-26T23:12:02.664Z,6.88
2023-01-26T23:14:35.260Z,7.63
2023-01-26T23:17:08.290Z,7.18
2023-01-26T23:19:40.651Z,6.78
2023-01-26T23:22:15.574Z,5.88
2023-01-26T23:25:08.013Z,7.63
2023-01-26T23:27:40.314Z,7.78
2023-01-26T23:30:13.394Z,7.28
2023-01-26T23:32:45.910Z,7.97
2023-01-26T23:35:18.563Z,7.28
2023-01-26T23:37:53.447Z,10.93
2023-01-26T23:40:25.849Z,6.07
2023-01-26T23:43:15.388Z,7.10
2023-01-26T23:45:49.735Z,8.00
2023-01-26T23:48:22.168Z,8.27
2023-01-26T23:50:58.044Z,9.70
2023-01-26T23:53:33.281Z,9.18
2023-01-26T23:56:06.896Z,8.27
2023-01-26T23:58:39.269Z,6.63
